Volcan De Teneguia — ECLA — position and weather

sailwx.info

Track history (hours):
 
Tides and Currents Weather Stations Pressure Air Temp Water Temp Dewpoint Dewpoint Depression Visibility Wind Speed Wind Dir Waves Ship Positions

Volcan De Teneguia

Last reported at 2014-Jul-30 08:34 UTC. Time now 2014-Jul-30 09:15 UTC.
Position N 35°42' W 007°40'.

Length 145 m; draft 5.5 m.

Type: Cargo ship. MMSI: 225317000.

Date/timePositionNaut miles runAvg speedWind from/ knotsBaromVisibWave heightAir tempDewpointWater temp
2014-Jul-30 08:34N 35°42' W 007°40'1514.9
2014-Jul-30 07:31N 35°53' W 007°27'1515.0
2014-Jul-30 06:31N 36°04' W 007°14'3015.1
2014-Jul-30 04:32N 36°27' W 006°51'1515.3
2014-Jul-30 03:33N 36°39' W 006°39'1611.3
2014-Jul-30 02:11N 36°47' W 006°23'8 0.2
2014-Jul-28 01:04N 36°54' W 006°19'7 8.9
2014-Jul-28 00:14N 36°47' W 006°22'811.9
2014-Jul-27 23:33N 36°44' W 006°31'1312.7
2014-Jul-27 22:33N 36°36' W 006°43'2812.9
2014-Jul-27 20:22N 36°15' W 007°07'  
2014-Jul-23 20:13N 30°23' W 013°07'26815.2
2014-Jul-23 02:33N 33°46' W 009°40'1615.2
2014-Jul-23 01:31N 33°58' W 009°28'1515.4
2014-Jul-23 00:33N 34°10' W 009°17'2015.5
2014-Jul-22 23:17N 34°24' W 009°01'7415.6
2014-Jul-22 18:31N 35°21' W 008°01'1515.7
2014-Jul-22 17:33N 35°32' W 007°49'2015.3
2014-Jul-22 16:13N 35°47' W 007°33'1115.4
2014-Jul-22 15:29N 35°56' W 007°24'1415.3
2014-Jul-22 14:33N 36°07' W 007°12'1714.9
2014-Jul-22 13:26N 36°19' W 006°59'1314.7
2014-Jul-22 12:33N 36°29' W 006°48'  
Track history (hours):
 
Tides and Currents Weather Stations Pressure Air Temp Water Temp Dewpoint Dewpoint Depression Visibility Wind Speed Wind Dir Waves Ship Positions

Volcan De Teneguia

Last reported at 2014-Jul-30 08:34 UTC. Time now 2014-Jul-30 09:15 UTC.
Position N 35°42' W 007°40'.

Length 145 m; draft 5.5 m.

Type: Cargo ship. MMSI: 225317000.

Date/timePositionNaut miles runAvg speedWind from/ knotsBaromVisibWave heightAir tempDewpointWater temp
2014-Jul-30 08:34N 35°42' W 007°40'1514.9
2014-Jul-30 07:31N 35°53' W 007°27'1515.0
2014-Jul-30 06:31N 36°04' W 007°14'3015.1
2014-Jul-30 04:32N 36°27' W 006°51'1515.3
2014-Jul-30 03:33N 36°39' W 006°39'1611.3
2014-Jul-30 02:11N 36°47' W 006°23'8 0.2
2014-Jul-28 01:04N 36°54' W 006°19'7 8.9
2014-Jul-28 00:14N 36°47' W 006°22'811.9
2014-Jul-27 23:33N 36°44' W 006°31'1312.7
2014-Jul-27 22:33N 36°36' W 006°43'2812.9
2014-Jul-27 20:22N 36°15' W 007°07'  
2014-Jul-23 20:13N 30°23' W 013°07'26815.2
2014-Jul-23 02:33N 33°46' W 009°40'1615.2
2014-Jul-23 01:31N 33°58' W 009°28'1515.4
2014-Jul-23 00:33N 34°10' W 009°17'2015.5
2014-Jul-22 23:17N 34°24' W 009°01'7415.6
2014-Jul-22 18:31N 35°21' W 008°01'1515.7
2014-Jul-22 17:33N 35°32' W 007°49'2015.3
2014-Jul-22 16:13N 35°47' W 007°33'1115.4
2014-Jul-22 15:29N 35°56' W 007°24'1415.3
2014-Jul-22 14:33N 36°07' W 007°12'1714.9
2014-Jul-22 13:26N 36°19' W 006°59'1314.7
2014-Jul-22 12:33N 36°29' W 006°48'  

Dump ship's entire track history